Mountain Brook, South Carolina
Current Conditions -  °F | °C
As of 7:53 AM on Saturday 20 Dec 2014 (Local Time) from KCUB Reporting Station
Light Rain Light Rain  
Wind Chill: 45°   Ceiling: 6500
Heat Index: 45°   Visibility: 7mi
Dew Point: 41°   Wind: 3mph
Humidity: 86%   Direction: 40°NE
Pressure: 30.22"   Gusts: NA
Location:  33.9488°N, 80.9462°W
Report Text: KCUB 201253Z AUTO 04003KT 7SM -RA OVC065 07/05 A3022 RMK AO2 RAB25 SLP232 P0000 T00720050
Loading
Personal Weather Stations






























Interactive Weather Map New forecast layout! Learn more

10-Day Weather Forecast

Advertisements
Track Severe Weather on mobile